Terminal Aerodrome Forecast
Issued by NWS Tulsa, OK

Home | Current Version | Previous Version | Text Only | Print | Product List | Glossary Off
Versions: 1 2 3 4 5 6 7 8 9 10 11 12 13 14 15 16 17

680
FTUS44 KTSA 022320
TAFFSM
TAF
KFSM 022320Z 0300/0324 31009KT P6SM BKN040
     FM030400 28007KT P6SM BKN045
     FM030600 30004KT P6SM SCT045
      TEMPO 0310/0314 4SM BR
     FM031700 33005KT P6SM SCT050=

USA.gov is the U.S. government's official web portal to all federal, state and local government web resources and services.